Search for airport 
image banner adimage banner adimage banner ad
image banner ad

72CL - Iron Mountain Pumping Plant

Located in Desert Center, United States

ICAO - 72CL, IATA -

Data provided by Airmate  

General information

Coordinates: N34°8'3" W115°7'9"
Elevation is 890 feet MSL.
Magnetic variation is 13° East
View others Airports in California

Operational data

Special qualification required
Current time UTC:
Current local time:
Weather at : KBLH - Blythe ( 68 km )
METAR: KBLH 270552Z AUTO 15006KT 10SM CLR 34/16 A2986 RMK AO2 SLP104 T03390156 10383 20333 51019
TAF: KBLH 270526Z 2706/2806 VRB04KT P6SM FEW250 FM271800 16008KT P6SM FEW250 FM280300 20006KT P6SM FEW250
View NOTAMs / SUP AIP / TFR affecting this airport [VIEW]
Communications frequencies: [VIEW]

Runways:

RWY identifierQFULength (ft)Width (ft)SurfaceLDA (ft)
17320030ASPH
35320030ASPH

Airport contact information

Address: Desert Center United States

Satellite view of 72CL